sensor_id;sensor_type;location;lat;lon;timestamp;P1;durP1;ratioP1;P2;durP2;ratioP2
24617;SDS011;12762;51.730;5.356;2023-05-07T00:02:25;8.47;;;5.83;;
24617;SDS011;12762;51.730;5.356;2023-05-07T00:04:52;9.33;;;6.63;;
24617;SDS011;12762;51.730;5.356;2023-05-07T00:07:22;8.83;;;6.73;;
24617;SDS011;12762;51.730;5.356;2023-05-07T00:09:49;6.07;;;5.20;;
24617;SDS011;12762;51.730;5.356;2023-05-07T00:12:15;8.17;;;6.43;;
24617;SDS011;12762;51.730;5.356;2023-05-07T00:14:42;7.37;;;5.53;;
24617;SDS011;12762;51.730;5.356;2023-05-07T00:17:12;6.83;;;5.53;;
24617;SDS011;12762;51.730;5.356;2023-05-07T00:19:39;9.07;;;5.00;;
24617;SDS011;12762;51.730;5.356;2023-05-07T00:22:06;8.50;;;5.67;;
24617;SDS011;12762;51.730;5.356;2023-05-07T00:24:34;8.33;;;5.67;;
24617;SDS011;12762;51.730;5.356;2023-05-07T00:27:01;9.60;;;6.43;;
24617;SDS011;12762;51.730;5.356;2023-05-07T00:29:27;6.13;;;5.53;;
24617;SDS011;12762;51.730;5.356;2023-05-07T00:31:54;7.00;;;4.90;;
24617;SDS011;12762;51.730;5.356;2023-05-07T00:34:21;8.17;;;6.07;;
24617;SDS011;12762;51.730;5.356;2023-05-07T00:36:48;7.10;;;5.20;;
24617;SDS011;12762;51.730;5.356;2023-05-07T00:39:15;7.60;;;5.50;;
24617;SDS011;12762;51.730;5.356;2023-05-07T00:41:45;10.10;;;5.70;;
24617;SDS011;12762;51.730;5.356;2023-05-07T00:44:12;6.83;;;5.03;;
24617;SDS011;12762;51.730;5.356;2023-05-07T00:46:40;8.23;;;5.60;;
24617;SDS011;12762;51.730;5.356;2023-05-07T00:49:06;6.97;;;5.07;;
24617;SDS011;12762;51.730;5.356;2023-05-07T00:51:33;6.53;;;4.83;;
24617;SDS011;12762;51.730;5.356;2023-05-07T00:54:01;10.13;;;5.77;;
24617;SDS011;12762;51.730;5.356;2023-05-07T00:56:29;7.80;;;5.70;;
24617;SDS011;12762;51.730;5.356;2023-05-07T00:58:56;8.00;;;6.03;;
24617;SDS011;12762;51.730;5.356;2023-05-07T01:01:23;8.20;;;6.33;;
24617;SDS011;12762;51.730;5.356;2023-05-07T01:03:50;6.63;;;5.40;;
24617;SDS011;12762;51.730;5.356;2023-05-07T01:06:17;7.97;;;5.53;;
24617;SDS011;12762;51.730;5.356;2023-05-07T01:08:45;7.77;;;5.57;;
24617;SDS011;12762;51.730;5.356;2023-05-07T01:11:15;7.17;;;5.47;;
24617;SDS011;12762;51.730;5.356;2023-05-07T01:13:46;9.93;;;5.40;;
24617;SDS011;12762;51.730;5.356;2023-05-07T01:16:14;4.90;;;3.57;;
24617;SDS011;12762;51.730;5.356;2023-05-07T01:18:41;11.00;;;5.67;;
24617;SDS011;12762;51.730;5.356;2023-05-07T01:21:08;8.93;;;5.73;;
24617;SDS011;12762;51.730;5.356;2023-05-07T01:23:38;8.00;;;5.30;;
24617;SDS011;12762;51.730;5.356;2023-05-07T01:26:06;6.67;;;5.23;;
24617;SDS011;12762;51.730;5.356;2023-05-07T01:28:32;7.30;;;4.40;;
24617;SDS011;12762;51.730;5.356;2023-05-07T01:31:02;8.73;;;5.93;;
24617;SDS011;12762;51.730;5.356;2023-05-07T01:33:31;9.33;;;6.03;;
24617;SDS011;12762;51.730;5.356;2023-05-07T01:36:00;9.20;;;6.17;;
24617;SDS011;12762;51.730;5.356;2023-05-07T01:38:30;7.53;;;5.10;;
24617;SDS011;12762;51.730;5.356;2023-05-07T01:40:57;8.50;;;5.73;;
24617;SDS011;12762;51.730;5.356;2023-05-07T01:43:24;9.00;;;6.03;;
24617;SDS011;12762;51.730;5.356;2023-05-07T01:45:52;7.53;;;5.17;;
24617;SDS011;12762;51.730;5.356;2023-05-07T01:48:19;11.83;;;6.07;;
24617;SDS011;12762;51.730;5.356;2023-05-07T01:50:47;7.83;;;6.47;;
24617;SDS011;12762;51.730;5.356;2023-05-07T01:53:14;8.30;;;6.40;;
24617;SDS011;12762;51.730;5.356;2023-05-07T01:55:41;9.00;;;6.43;;
24617;SDS011;12762;51.730;5.356;2023-05-07T01:58:08;8.97;;;6.87;;
24617;SDS011;12762;51.730;5.356;2023-05-07T02:00:35;8.30;;;5.63;;
24617;SDS011;12762;51.730;5.356;2023-05-07T02:03:02;9.50;;;6.90;;
24617;SDS011;12762;51.730;5.356;2023-05-07T02:05:29;10.90;;;7.93;;
24617;SDS011;12762;51.730;5.356;2023-05-07T02:07:56;9.10;;;7.10;;
24617;SDS011;12762;51.730;5.356;2023-05-07T02:10:23;8.87;;;6.90;;
24617;SDS011;12762;51.730;5.356;2023-05-07T02:12:50;10.20;;;6.87;;
24617;SDS011;12762;51.730;5.356;2023-05-07T02:15:17;9.13;;;6.43;;
24617;SDS011;12762;51.730;5.356;2023-05-07T02:20:31;11.63;;;8.27;;
24617;SDS011;12762;51.730;5.356;2023-05-07T02:22:58;11.43;;;7.43;;
24617;SDS011;12762;51.730;5.356;2023-05-07T02:25:28;8.30;;;7.13;;
24617;SDS011;12762;51.730;5.356;2023-05-07T02:27:55;10.10;;;8.00;;
24617;SDS011;12762;51.730;5.356;2023-05-07T02:30:22;10.43;;;7.33;;
24617;SDS011;12762;51.730;5.356;2023-05-07T02:32:49;12.13;;;9.03;;
24617;SDS011;12762;51.730;5.356;2023-05-07T02:35:16;11.10;;;7.67;;
24617;SDS011;12762;51.730;5.356;2023-05-07T02:37:43;12.03;;;9.00;;
24617;SDS011;12762;51.730;5.356;2023-05-07T02:40:10;12.17;;;8.57;;
24617;SDS011;12762;51.730;5.356;2023-05-07T02:42:38;11.50;;;9.10;;
24617;SDS011;12762;51.730;5.356;2023-05-07T02:45:05;10.53;;;8.27;;
24617;SDS011;12762;51.730;5.356;2023-05-07T02:47:32;10.47;;;8.03;;
24617;SDS011;12762;51.730;5.356;2023-05-07T02:49:59;11.30;;;9.17;;
24617;SDS011;12762;51.730;5.356;2023-05-07T02:52:26;13.77;;;8.57;;
24617;SDS011;12762;51.730;5.356;2023-05-07T02:54:53;13.70;;;9.70;;
24617;SDS011;12762;51.730;5.356;2023-05-07T02:57:20;14.07;;;9.90;;
24617;SDS011;12762;51.730;5.356;2023-05-07T02:59:47;11.97;;;9.57;;
24617;SDS011;12762;51.730;5.356;2023-05-07T03:02:13;11.67;;;8.00;;
24617;SDS011;12762;51.730;5.356;2023-05-07T03:04:41;10.63;;;7.70;;
24617;SDS011;12762;51.730;5.356;2023-05-07T03:07:07;12.73;;;8.90;;
24617;SDS011;12762;51.730;5.356;2023-05-07T03:09:34;9.73;;;8.13;;
24617;SDS011;12762;51.730;5.356;2023-05-07T03:12:04;11.47;;;7.70;;
24617;SDS011;12762;51.730;5.356;2023-05-07T03:14:31;12.80;;;8.43;;
24617;SDS011;12762;51.730;5.356;2023-05-07T03:16:58;14.70;;;9.47;;
24617;SDS011;12762;51.730;5.356;2023-05-07T03:19:25;13.23;;;10.07;;
24617;SDS011;12762;51.730;5.356;2023-05-07T03:21:51;11.73;;;9.30;;
24617;SDS011;12762;51.730;5.356;2023-05-07T03:24:21;11.90;;;9.70;;
24617;SDS011;12762;51.730;5.356;2023-05-07T03:26:48;13.70;;;10.87;;
24617;SDS011;12762;51.730;5.356;2023-05-07T03:29:15;12.97;;;10.20;;
24617;SDS011;12762;51.730;5.356;2023-05-07T03:31:42;13.20;;;9.17;;
24617;SDS011;12762;51.730;5.356;2023-05-07T03:34:09;14.70;;;10.13;;
24617;SDS011;12762;51.730;5.356;2023-05-07T03:36:36;14.47;;;10.87;;
24617;SDS011;12762;51.730;5.356;2023-05-07T03:39:03;16.70;;;11.37;;
24617;SDS011;12762;51.730;5.356;2023-05-07T03:41:32;15.30;;;11.73;;
24617;SDS011;12762;51.730;5.356;2023-05-07T03:43:58;16.40;;;11.17;;
24617;SDS011;12762;51.730;5.356;2023-05-07T03:46:25;15.93;;;11.40;;
24617;SDS011;12762;51.730;5.356;2023-05-07T03:48:54;15.97;;;10.43;;
24617;SDS011;12762;51.730;5.356;2023-05-07T03:51:21;19.03;;;11.33;;
24617;SDS011;12762;51.730;5.356;2023-05-07T03:53:50;11.20;;;9.27;;
24617;SDS011;12762;51.730;5.356;2023-05-07T03:56:20;19.57;;;13.10;;
24617;SDS011;12762;51.730;5.356;2023-05-07T03:58:47;17.03;;;12.07;;
24617;SDS011;12762;51.730;5.356;2023-05-07T04:01:14;11.97;;;9.17;;
24617;SDS011;12762;51.730;5.356;2023-05-07T04:03:41;18.27;;;13.70;;
24617;SDS011;12762;51.730;5.356;2023-05-07T04:06:09;17.67;;;14.10;;
24617;SDS011;12762;51.730;5.356;2023-05-07T04:08:36;16.47;;;12.77;;
24617;SDS011;12762;51.730;5.356;2023-05-07T04:11:03;19.90;;;13.97;;
24617;SDS011;12762;51.730;5.356;2023-05-07T04:13:30;19.17;;;13.73;;
24617;SDS011;12762;51.730;5.356;2023-05-07T04:15:57;16.30;;;11.93;;
24617;SDS011;12762;51.730;5.356;2023-05-07T04:18:24;14.07;;;11.63;;
24617;SDS011;12762;51.730;5.356;2023-05-07T04:20:54;15.80;;;12.53;;
24617;SDS011;12762;51.730;5.356;2023-05-07T04:23:21;18.27;;;14.67;;
24617;SDS011;12762;51.730;5.356;2023-05-07T04:25:50;20.33;;;15.27;;
24617;SDS011;12762;51.730;5.356;2023-05-07T04:28:17;19.87;;;14.77;;
24617;SDS011;12762;51.730;5.356;2023-05-07T04:30:44;21.50;;;15.80;;
24617;SDS011;12762;51.730;5.356;2023-05-07T04:33:11;20.83;;;14.80;;
24617;SDS011;12762;51.730;5.356;2023-05-07T04:35:40;21.30;;;15.60;;
24617;SDS011;12762;51.730;5.356;2023-05-07T04:38:09;23.80;;;16.53;;
24617;SDS011;12762;51.730;5.356;2023-05-07T04:40:36;20.17;;;14.90;;
24617;SDS011;12762;51.730;5.356;2023-05-07T04:43:03;21.03;;;14.90;;
24617;SDS011;12762;51.730;5.356;2023-05-07T04:45:30;18.60;;;14.40;;
24617;SDS011;12762;51.730;5.356;2023-05-07T04:48:00;21.37;;;16.57;;
24617;SDS011;12762;51.730;5.356;2023-05-07T04:50:27;22.93;;;16.53;;
24617;SDS011;12762;51.730;5.356;2023-05-07T04:52:54;22.47;;;16.77;;
24617;SDS011;12762;51.730;5.356;2023-05-07T04:55:20;24.80;;;16.90;;
24617;SDS011;12762;51.730;5.356;2023-05-07T04:57:47;24.13;;;16.47;;
24617;SDS011;12762;51.730;5.356;2023-05-07T05:00:18;23.00;;;17.13;;
24617;SDS011;12762;51.730;5.356;2023-05-07T05:02:45;24.20;;;17.67;;
24617;SDS011;12762;51.730;5.356;2023-05-07T05:05:12;21.60;;;15.40;;
24617;SDS011;12762;51.730;5.356;2023-05-07T05:07:39;21.13;;;16.17;;
24617;SDS011;12762;51.730;5.356;2023-05-07T05:10:06;20.40;;;16.17;;
24617;SDS011;12762;51.730;5.356;2023-05-07T05:12:34;23.57;;;17.53;;
24617;SDS011;12762;51.730;5.356;2023-05-07T05:15:01;21.83;;;17.70;;
24617;SDS011;12762;51.730;5.356;2023-05-07T05:17:28;22.43;;;17.83;;
24617;SDS011;12762;51.730;5.356;2023-05-07T05:19:54;24.13;;;16.77;;
24617;SDS011;12762;51.730;5.356;2023-05-07T05:22:22;24.20;;;18.03;;
24617;SDS011;12762;51.730;5.356;2023-05-07T05:24:49;25.13;;;17.93;;
24617;SDS011;12762;51.730;5.356;2023-05-07T05:27:18;25.23;;;19.07;;
24617;SDS011;12762;51.730;5.356;2023-05-07T05:29:45;23.90;;;17.60;;
24617;SDS011;12762;51.730;5.356;2023-05-07T05:32:15;25.93;;;18.87;;
24617;SDS011;12762;51.730;5.356;2023-05-07T05:34:42;26.57;;;19.33;;
24617;SDS011;12762;51.730;5.356;2023-05-07T05:37:09;25.43;;;20.07;;
24617;SDS011;12762;51.730;5.356;2023-05-07T05:39:36;22.60;;;17.70;;
24617;SDS011;12762;51.730;5.356;2023-05-07T05:42:03;24.40;;;18.73;;
24617;SDS011;12762;51.730;5.356;2023-05-07T05:44:30;23.37;;;18.57;;
24617;SDS011;12762;51.730;5.356;2023-05-07T05:46:57;26.43;;;20.07;;
24617;SDS011;12762;51.730;5.356;2023-05-07T05:49:25;28.67;;;19.57;;
24617;SDS011;12762;51.730;5.356;2023-05-07T05:51:52;26.73;;;20.17;;
24617;SDS011;12762;51.730;5.356;2023-05-07T05:54:18;25.57;;;19.30;;
24617;SDS011;12762;51.730;5.356;2023-05-07T05:56:45;26.70;;;19.57;;
24617;SDS011;12762;51.730;5.356;2023-05-07T05:59:12;31.47;;;21.10;;
24617;SDS011;12762;51.730;5.356;2023-05-07T06:01:39;26.43;;;19.37;;
24617;SDS011;12762;51.730;5.356;2023-05-07T06:04:11;18.77;;;13.27;;
24617;SDS011;12762;51.730;5.356;2023-05-07T06:06:39;26.30;;;19.70;;
24617;SDS011;12762;51.730;5.356;2023-05-07T06:09:14;28.43;;;20.60;;
24617;SDS011;12762;51.730;5.356;2023-05-07T06:11:40;27.90;;;20.60;;
24617;SDS011;12762;51.730;5.356;2023-05-07T06:14:07;28.83;;;21.67;;
24617;SDS011;12762;51.730;5.356;2023-05-07T06:16:34;27.70;;;20.23;;
24617;SDS011;12762;51.730;5.356;2023-05-07T06:19:03;29.10;;;20.90;;
24617;SDS011;12762;51.730;5.356;2023-05-07T06:21:31;27.90;;;20.83;;
24617;SDS011;12762;51.730;5.356;2023-05-07T06:24:00;28.37;;;21.57;;
24617;SDS011;12762;51.730;5.356;2023-05-07T06:26:33;30.27;;;20.63;;
24617;SDS011;12762;51.730;5.356;2023-05-07T06:29:02;30.60;;;22.57;;
24617;SDS011;12762;51.730;5.356;2023-05-07T06:31:30;27.27;;;19.87;;
24617;SDS011;12762;51.730;5.356;2023-05-07T06:33:58;30.70;;;20.47;;
24617;SDS011;12762;51.730;5.356;2023-05-07T06:36:25;29.57;;;21.40;;
24617;SDS011;12762;51.730;5.356;2023-05-07T06:38:52;30.13;;;21.97;;
24617;SDS011;12762;51.730;5.356;2023-05-07T06:41:22;26.73;;;20.13;;
24617;SDS011;12762;51.730;5.356;2023-05-07T06:43:49;29.27;;;20.93;;
24617;SDS011;12762;51.730;5.356;2023-05-07T06:46:19;30.20;;;21.37;;
24617;SDS011;12762;51.730;5.356;2023-05-07T06:48:46;27.27;;;20.77;;
24617;SDS011;12762;51.730;5.356;2023-05-07T06:51:13;27.67;;;19.13;;
24617;SDS011;12762;51.730;5.356;2023-05-07T06:53:40;31.03;;;21.03;;
24617;SDS011;12762;51.730;5.356;2023-05-07T06:56:07;27.63;;;21.80;;
24617;SDS011;12762;51.730;5.356;2023-05-07T06:58:34;27.20;;;21.17;;
24617;SDS011;12762;51.730;5.356;2023-05-07T07:01:01;30.17;;;21.10;;
24617;SDS011;12762;51.730;5.356;2023-05-07T07:03:27;26.70;;;19.80;;
24617;SDS011;12762;51.730;5.356;2023-05-07T07:05:54;25.97;;;19.93;;
24617;SDS011;12762;51.730;5.356;2023-05-07T07:08:21;27.63;;;19.97;;
24617;SDS011;12762;51.730;5.356;2023-05-07T07:10:48;28.37;;;20.10;;
24617;SDS011;12762;51.730;5.356;2023-05-07T07:13:15;26.97;;;18.70;;
24617;SDS011;12762;51.730;5.356;2023-05-07T07:15:42;24.47;;;18.27;;
24617;SDS011;12762;51.730;5.356;2023-05-07T07:18:09;22.63;;;15.80;;
24617;SDS011;12762;51.730;5.356;2023-05-07T07:20:37;23.50;;;17.70;;
24617;SDS011;12762;51.730;5.356;2023-05-07T07:23:04;24.93;;;18.00;;
24617;SDS011;12762;51.730;5.356;2023-05-07T07:25:31;22.47;;;16.80;;
24617;SDS011;12762;51.730;5.356;2023-05-07T07:27:58;24.53;;;18.07;;
24617;SDS011;12762;51.730;5.356;2023-05-07T07:30:28;24.13;;;18.00;;
24617;SDS011;12762;51.730;5.356;2023-05-07T07:32:54;24.53;;;18.03;;
24617;SDS011;12762;51.730;5.356;2023-05-07T07:35:26;22.27;;;16.23;;
24617;SDS011;12762;51.730;5.356;2023-05-07T07:37:53;25.00;;;17.70;;
24617;SDS011;12762;51.730;5.356;2023-05-07T07:40:23;19.77;;;15.27;;
24617;SDS011;12762;51.730;5.356;2023-05-07T07:42:50;20.83;;;16.27;;
24617;SDS011;12762;51.730;5.356;2023-05-07T07:45:17;21.33;;;15.00;;
24617;SDS011;12762;51.730;5.356;2023-05-07T07:47:44;21.77;;;16.20;;
24617;SDS011;12762;51.730;5.356;2023-05-07T07:50:11;25.90;;;16.67;;
24617;SDS011;12762;51.730;5.356;2023-05-07T07:52:50;21.70;;;16.40;;
24617;SDS011;12762;51.730;5.356;2023-05-07T07:55:19;21.73;;;16.97;;
24617;SDS011;12762;51.730;5.356;2023-05-07T07:57:49;20.67;;;16.13;;
24617;SDS011;12762;51.730;5.356;2023-05-07T08:00:16;22.90;;;17.03;;
24617;SDS011;12762;51.730;5.356;2023-05-07T08:02:43;19.83;;;15.03;;
24617;SDS011;12762;51.730;5.356;2023-05-07T08:05:10;21.40;;;15.23;;
24617;SDS011;12762;51.730;5.356;2023-05-07T08:07:37;20.17;;;16.00;;
24617;SDS011;12762;51.730;5.356;2023-05-07T08:10:04;21.87;;;16.43;;
24617;SDS011;12762;51.730;5.356;2023-05-07T08:12:31;25.10;;;16.63;;
24617;SDS011;12762;51.730;5.356;2023-05-07T08:14:57;20.33;;;14.93;;
24617;SDS011;12762;51.730;5.356;2023-05-07T08:17:24;20.30;;;14.53;;
24617;SDS011;12762;51.730;5.356;2023-05-07T08:19:51;18.83;;;14.57;;
24617;SDS011;12762;51.730;5.356;2023-05-07T08:22:21;20.30;;;14.37;;
24617;SDS011;12762;51.730;5.356;2023-05-07T08:24:49;18.93;;;13.57;;
24617;SDS011;12762;51.730;5.356;2023-05-07T08:27:15;20.83;;;13.57;;
24617;SDS011;12762;51.730;5.356;2023-05-07T08:29:42;18.93;;;13.50;;
24617;SDS011;12762;51.730;5.356;2023-05-07T08:32:13;17.47;;;13.33;;
24617;SDS011;12762;51.730;5.356;2023-05-07T08:34:41;18.70;;;14.53;;
24617;SDS011;12762;51.730;5.356;2023-05-07T08:37:07;20.90;;;14.83;;
24617;SDS011;12762;51.730;5.356;2023-05-07T08:39:34;18.57;;;14.43;;
24617;SDS011;12762;51.730;5.356;2023-05-07T08:42:01;18.80;;;13.90;;
24617;SDS011;12762;51.730;5.356;2023-05-07T08:44:34;17.17;;;13.20;;
24617;SDS011;12762;51.730;5.356;2023-05-07T08:47:01;17.90;;;12.37;;
24617;SDS011;12762;51.730;5.356;2023-05-07T08:49:28;16.40;;;11.87;;
24617;SDS011;12762;51.730;5.356;2023-05-07T08:51:55;14.47;;;10.97;;
24617;SDS011;12762;51.730;5.356;2023-05-07T08:54:22;13.30;;;11.03;;
24617;SDS011;12762;51.730;5.356;2023-05-07T08:56:51;16.43;;;12.57;;
24617;SDS011;12762;51.730;5.356;2023-05-07T08:59:18;14.27;;;10.50;;
24617;SDS011;12762;51.730;5.356;2023-05-07T09:01:44;12.73;;;10.07;;
24617;SDS011;12762;51.730;5.356;2023-05-07T09:04:12;17.97;;;10.63;;
24617;SDS011;12762;51.730;5.356;2023-05-07T09:06:41;12.83;;;10.43;;
24617;SDS011;12762;51.730;5.356;2023-05-07T09:09:08;14.60;;;10.27;;
24617;SDS011;12762;51.730;5.356;2023-05-07T09:11:35;11.57;;;8.90;;
24617;SDS011;12762;51.730;5.356;2023-05-07T09:14:02;11.53;;;9.17;;
24617;SDS011;12762;51.730;5.356;2023-05-07T09:16:29;12.83;;;9.97;;
24617;SDS011;12762;51.730;5.356;2023-05-07T09:18:59;12.70;;;9.33;;
24617;SDS011;12762;51.730;5.356;2023-05-07T09:21:27;12.63;;;9.30;;
24617;SDS011;12762;51.730;5.356;2023-05-07T09:23:54;12.60;;;10.33;;
24617;SDS011;12762;51.730;5.356;2023-05-07T09:26:22;12.10;;;9.77;;
24617;SDS011;12762;51.730;5.356;2023-05-07T09:28:49;11.23;;;9.30;;
24617;SDS011;12762;51.730;5.356;2023-05-07T09:31:17;10.83;;;8.50;;
24617;SDS011;12762;51.730;5.356;2023-05-07T09:33:46;11.63;;;8.60;;
24617;SDS011;12762;51.730;5.356;2023-05-07T09:36:13;11.77;;;9.03;;
24617;SDS011;12762;51.730;5.356;2023-05-07T09:38:40;11.27;;;8.50;;
24617;SDS011;12762;51.730;5.356;2023-05-07T09:41:09;10.53;;;8.50;;
24617;SDS011;12762;51.730;5.356;2023-05-07T09:43:38;12.87;;;10.10;;
24617;SDS011;12762;51.730;5.356;2023-05-07T09:46:12;15.07;;;10.37;;
24617;SDS011;12762;51.730;5.356;2023-05-07T09:48:42;10.70;;;9.33;;
24617;SDS011;12762;51.730;5.356;2023-05-07T09:53:53;12.47;;;9.30;;
24617;SDS011;12762;51.730;5.356;2023-05-07T09:56:20;13.07;;;8.73;;
24617;SDS011;12762;51.730;5.356;2023-05-07T09:58:47;14.00;;;10.63;;
24617;SDS011;12762;51.730;5.356;2023-05-07T10:01:15;13.57;;;10.77;;
24617;SDS011;12762;51.730;5.356;2023-05-07T10:03:45;10.88;;;8.95;;
24617;SDS011;12762;51.730;5.356;2023-05-07T10:06:13;13.15;;;10.25;;
24617;SDS011;12762;51.730;5.356;2023-05-07T10:08:42;12.53;;;10.40;;
24617;SDS011;12762;51.730;5.356;2023-05-07T10:11:10;13.73;;;11.15;;
24617;SDS011;12762;51.730;5.356;2023-05-07T10:13:37;13.18;;;10.60;;
24617;SDS011;12762;51.730;5.356;2023-05-07T10:16:04;12.02;;;10.25;;
24617;SDS011;12762;51.730;5.356;2023-05-07T10:18:31;12.98;;;9.15;;
24617;SDS011;12762;51.730;5.356;2023-05-07T10:21:11;13.60;;;10.52;;
24617;SDS011;12762;51.730;5.356;2023-05-07T10:23:44;14.60;;;11.43;;
24617;SDS011;12762;51.730;5.356;2023-05-07T10:26:14;12.98;;;10.90;;
24617;SDS011;12762;51.730;5.356;2023-05-07T10:28:44;12.45;;;9.77;;
24617;SDS011;12762;51.730;5.356;2023-05-07T10:33:57;14.30;;;10.60;;
24617;SDS011;12762;51.730;5.356;2023-05-07T10:36:25;12.80;;;10.00;;
24617;SDS011;12762;51.730;5.356;2023-05-07T10:38:53;13.50;;;10.17;;
24617;SDS011;12762;51.730;5.356;2023-05-07T10:41:21;13.47;;;9.57;;
24617;SDS011;12762;51.730;5.356;2023-05-07T10:43:48;12.50;;;10.90;;
24617;SDS011;12762;51.730;5.356;2023-05-07T10:46:16;11.80;;;10.03;;
24617;SDS011;12762;51.730;5.356;2023-05-07T10:51:30;11.30;;;9.50;;
24617;SDS011;12762;51.730;5.356;2023-05-07T10:56:38;13.77;;;10.43;;
24617;SDS011;12762;51.730;5.356;2023-05-07T10:59:44;13.53;;;10.63;;
24617;SDS011;12762;51.730;5.356;2023-05-07T11:02:08;13.33;;;10.33;;
24617;SDS011;12762;51.730;5.356;2023-05-07T11:04:40;13.67;;;11.60;;
24617;SDS011;12762;51.730;5.356;2023-05-07T11:15:08;13.23;;;10.87;;
24617;SDS011;12762;51.730;5.356;2023-05-07T11:17:52;15.63;;;12.27;;
24617;SDS011;12762;51.730;5.356;2023-05-07T11:20:20;14.27;;;10.73;;
24617;SDS011;12762;51.730;5.356;2023-05-07T11:26:02;14.97;;;11.20;;
24617;SDS011;12762;51.730;5.356;2023-05-07T11:28:38;13.43;;;10.80;;
24617;SDS011;12762;51.730;5.356;2023-05-07T11:31:06;15.30;;;11.87;;
24617;SDS011;12762;51.730;5.356;2023-05-07T11:33:34;17.67;;;11.57;;
24617;SDS011;12762;51.730;5.356;2023-05-07T11:36:04;14.60;;;12.03;;
24617;SDS011;12762;51.730;5.356;2023-05-07T11:38:34;15.73;;;12.80;;
24617;SDS011;12762;51.730;5.356;2023-05-07T11:41:02;14.67;;;12.10;;
24617;SDS011;12762;51.730;5.356;2023-05-07T11:43:31;12.80;;;11.33;;
24617;SDS011;12762;51.730;5.356;2023-05-07T11:46:08;15.10;;;10.70;;
24617;SDS011;12762;51.730;5.356;2023-05-07T11:48:40;10.90;;;9.43;;
24617;SDS011;12762;51.730;5.356;2023-05-07T11:51:07;12.37;;;9.30;;
24617;SDS011;12762;51.730;5.356;2023-05-07T11:53:40;10.40;;;8.60;;
24617;SDS011;12762;51.730;5.356;2023-05-07T11:56:09;11.33;;;8.37;;
24617;SDS011;12762;51.730;5.356;2023-05-07T11:58:37;9.37;;;8.13;;
24617;SDS011;12762;51.730;5.356;2023-05-07T12:01:07;12.30;;;8.63;;
24617;SDS011;12762;51.730;5.356;2023-05-07T12:03:35;8.83;;;7.93;;
24617;SDS011;12762;51.730;5.356;2023-05-07T12:06:06;9.30;;;7.67;;
24617;SDS011;12762;51.730;5.356;2023-05-07T12:08:33;11.00;;;7.87;;
24617;SDS011;12762;51.730;5.356;2023-05-07T12:11:07;10.90;;;8.50;;
24617;SDS011;12762;51.730;5.356;2023-05-07T12:13:40;11.33;;;7.67;;
24617;SDS011;12762;51.730;5.356;2023-05-07T12:16:07;11.10;;;8.47;;
24617;SDS011;12762;51.730;5.356;2023-05-07T12:18:35;11.15;;;7.85;;
24617;SDS011;12762;51.730;5.356;2023-05-07T12:21:05;10.00;;;7.82;;
24617;SDS011;12762;51.730;5.356;2023-05-07T12:23:33;9.52;;;7.20;;
24617;SDS011;12762;51.730;5.356;2023-05-07T12:26:05;10.65;;;8.10;;
24617;SDS011;12762;51.730;5.356;2023-05-07T12:28:36;9.73;;;8.05;;
24617;SDS011;12762;51.730;5.356;2023-05-07T12:31:05;10.15;;;8.20;;
24617;SDS011;12762;51.730;5.356;2023-05-07T12:33:35;9.95;;;7.95;;
24617;SDS011;12762;51.730;5.356;2023-05-07T12:36:03;9.90;;;7.45;;
24617;SDS011;12762;51.730;5.356;2023-05-07T12:38:34;11.07;;;7.72;;
24617;SDS011;12762;51.730;5.356;2023-05-07T12:41:02;13.38;;;9.00;;
24617;SDS011;12762;51.730;5.356;2023-05-07T12:43:29;7.90;;;6.70;;
24617;SDS011;12762;51.730;5.356;2023-05-07T12:45:57;9.45;;;6.57;;
24617;SDS011;12762;51.730;5.356;2023-05-07T12:48:27;10.43;;;8.65;;
24617;SDS011;12762;51.730;5.356;2023-05-07T12:50:54;10.88;;;7.90;;
24617;SDS011;12762;51.730;5.356;2023-05-07T12:53:23;12.95;;;8.48;;
24617;SDS011;12762;51.730;5.356;2023-05-07T12:55:55;13.00;;;9.10;;
24617;SDS011;12762;51.730;5.356;2023-05-07T12:58:24;13.55;;;9.50;;
24617;SDS011;12762;51.730;5.356;2023-05-07T13:00:51;11.18;;;9.10;;
24617;SDS011;12762;51.730;5.356;2023-05-07T13:03:36;11.95;;;9.18;;
24617;SDS011;12762;51.730;5.356;2023-05-07T13:06:05;10.75;;;9.05;;
24617;SDS011;12762;51.730;5.356;2023-05-07T13:08:37;12.43;;;9.48;;
24617;SDS011;12762;51.730;5.356;2023-05-07T13:11:11;11.60;;;8.90;;
24617;SDS011;12762;51.730;5.356;2023-05-07T13:13:40;14.00;;;8.63;;
24617;SDS011;12762;51.730;5.356;2023-05-07T13:16:09;10.32;;;8.88;;
24617;SDS011;12762;51.730;5.356;2023-05-07T13:18:39;10.18;;;8.88;;
24617;SDS011;12762;51.730;5.356;2023-05-07T13:21:11;10.27;;;8.18;;
24617;SDS011;12762;51.730;5.356;2023-05-07T13:23:39;9.95;;;8.55;;
24617;SDS011;12762;51.730;5.356;2023-05-07T13:26:06;12.05;;;8.77;;
24617;SDS011;12762;51.730;5.356;2023-05-07T13:28:54;9.13;;;8.10;;
24617;SDS011;12762;51.730;5.356;2023-05-07T13:31:21;14.80;;;8.68;;
24617;SDS011;12762;51.730;5.356;2023-05-07T13:33:48;9.07;;;7.00;;
24617;SDS011;12762;51.730;5.356;2023-05-07T13:36:15;11.00;;;7.28;;
24617;SDS011;12762;51.730;5.356;2023-05-07T13:38:45;11.38;;;8.43;;
24617;SDS011;12762;51.730;5.356;2023-05-07T13:41:12;11.65;;;8.65;;
24617;SDS011;12762;51.730;5.356;2023-05-07T13:43:40;9.75;;;7.57;;
24617;SDS011;12762;51.730;5.356;2023-05-07T13:46:09;12.23;;;7.25;;
24617;SDS011;12762;51.730;5.356;2023-05-07T13:48:39;12.07;;;8.25;;
24617;SDS011;12762;51.730;5.356;2023-05-07T13:51:08;10.30;;;8.30;;
24617;SDS011;12762;51.730;5.356;2023-05-07T13:53:35;9.65;;;8.38;;
24617;SDS011;12762;51.730;5.356;2023-05-07T13:56:02;10.70;;;8.65;;
24617;SDS011;12762;51.730;5.356;2023-05-07T13:58:32;8.85;;;7.78;;
24617;SDS011;12762;51.730;5.356;2023-05-07T14:01:13;10.20;;;8.05;;
24617;SDS011;12762;51.730;5.356;2023-05-07T14:03:40;9.80;;;8.27;;
24617;SDS011;12762;51.730;5.356;2023-05-07T14:06:07;11.40;;;9.20;;
24617;SDS011;12762;51.730;5.356;2023-05-07T14:08:34;10.43;;;8.13;;
24617;SDS011;12762;51.730;5.356;2023-05-07T14:11:04;12.73;;;8.57;;
24617;SDS011;12762;51.730;5.356;2023-05-07T14:13:31;10.30;;;8.13;;
24617;SDS011;12762;51.730;5.356;2023-05-07T14:15:58;10.15;;;7.75;;
24617;SDS011;12762;51.730;5.356;2023-05-07T14:18:25;10.52;;;8.18;;
24617;SDS011;12762;51.730;5.356;2023-05-07T14:20:52;6.60;;;5.30;;
24617;SDS011;12762;51.730;5.356;2023-05-07T14:23:18;7.75;;;5.03;;
24617;SDS011;12762;51.730;5.356;2023-05-07T14:25:45;5.88;;;4.68;;
24617;SDS011;12762;51.730;5.356;2023-05-07T14:28:13;7.30;;;5.15;;
24617;SDS011;12762;51.730;5.356;2023-05-07T14:30:40;14.38;;;7.30;;
24617;SDS011;12762;51.730;5.356;2023-05-07T14:33:07;20.67;;;10.53;;
24617;SDS011;12762;51.730;5.356;2023-05-07T14:35:34;6.07;;;3.00;;
24617;SDS011;12762;51.730;5.356;2023-05-07T14:38:01;16.67;;;9.13;;
24617;SDS011;12762;51.730;5.356;2023-05-07T14:40:28;14.97;;;9.07;;
24617;SDS011;12762;51.730;5.356;2023-05-07T14:42:58;8.60;;;5.40;;
24617;SDS011;12762;51.730;5.356;2023-05-07T14:45:25;5.10;;;3.40;;
24617;SDS011;12762;51.730;5.356;2023-05-07T14:47:54;5.07;;;3.57;;
24617;SDS011;12762;51.730;5.356;2023-05-07T14:50:22;6.33;;;3.80;;
24617;SDS011;12762;51.730;5.356;2023-05-07T14:52:48;8.07;;;3.10;;
24617;SDS011;12762;51.730;5.356;2023-05-07T14:55:15;5.37;;;2.50;;
24617;SDS011;12762;51.730;5.356;2023-05-07T14:57:42;5.13;;;2.67;;
24617;SDS011;12762;51.730;5.356;2023-05-07T15:00:12;4.70;;;2.50;;
24617;SDS011;12762;51.730;5.356;2023-05-07T15:02:42;6.83;;;2.60;;